createdAt,value
2018-03-22T00:01:51.531Z,59.10
2018-03-22T00:04:19.084Z,58.40
2018-03-22T00:06:46.646Z,58.40
2018-03-22T00:09:14.187Z,58.20
2018-03-22T00:11:41.824Z,57.90
2018-03-22T00:14:09.402Z,57.50
2018-03-22T00:16:37.011Z,56.90
2018-03-22T00:19:04.578Z,56.80
2018-03-22T00:21:32.128Z,56.70
2018-03-22T00:24:00.824Z,56.60
2018-03-22T00:26:28.378Z,56.60
2018-03-22T00:28:56.677Z,56.30
2018-03-22T00:31:24.206Z,56.30
2018-03-22T00:33:51.788Z,56.60
2018-03-22T00:36:20.111Z,57.00
2018-03-22T00:38:47.663Z,57.00
2018-03-22T00:41:15.227Z,57.20
2018-03-22T00:43:42.874Z,57.00
2018-03-22T00:46:11.182Z,57.10
2018-03-22T00:48:38.753Z,57.00
2018-03-22T00:51:06.299Z,57.30
2018-03-22T00:53:33.850Z,57.60
2018-03-22T00:56:02.157Z,57.90
2018-03-22T00:58:29.683Z,57.90
2018-03-22T01:00:57.255Z,58.30
2018-03-22T01:03:24.822Z,57.80
2018-03-22T01:05:52.338Z,57.70
2018-03-22T01:08:19.884Z,57.30
2018-03-22T01:10:47.533Z,57.00
2018-03-22T01:13:15.906Z,58.00
2018-03-22T01:15:43.448Z,58.00
2018-03-22T01:18:10.987Z,57.70
2018-03-22T01:20:38.564Z,57.70
2018-03-22T01:23:06.113Z,57.80
2018-03-22T01:25:33.663Z,57.80
2018-03-22T01:28:01.177Z,58.00
2018-03-22T01:30:36.528Z,58.10
2018-03-22T01:33:04.073Z,58.30
2018-03-22T01:35:31.615Z,58.80
2018-03-22T01:37:59.296Z,59.30
2018-03-22T01:40:26.871Z,59.20
2018-03-22T01:42:54.631Z,60.20
2018-03-22T01:45:22.214Z,60.80
2018-03-22T01:47:49.763Z,61.10
2018-03-22T01:50:17.310Z,61.50
2018-03-22T01:52:56.580Z,62.10
2018-03-22T01:55:24.161Z,62.90
2018-03-22T01:57:51.751Z,62.60
2018-03-22T02:00:20.084Z,62.60
2018-03-22T02:02:47.613Z,62.60
2018-03-22T02:05:15.331Z,62.30
2018-03-22T02:07:42.867Z,62.60
2018-03-22T02:10:10.484Z,63.40
2018-03-22T02:12:38.016Z,64.00
2018-03-22T02:15:05.555Z,64.20
2018-03-22T02:17:33.156Z,64.00
2018-03-22T02:20:01.471Z,64.70
2018-03-22T02:22:29.782Z,65.20
2018-03-22T02:24:57.357Z,65.20
2018-03-22T02:27:24.921Z,65.40
2018-03-22T02:29:52.630Z,65.30
2018-03-22T02:32:20.326Z,65.50
2018-03-22T02:34:48.717Z,66.00
2018-03-22T02:37:17.179Z,66.20
2018-03-22T02:39:44.770Z,66.20
2018-03-22T02:42:12.332Z,66.60
2018-03-22T02:44:40.642Z,66.90
2018-03-22T02:47:08.174Z,66.90
2018-03-22T02:49:36.571Z,67.40
2018-03-22T02:52:04.447Z,67.40
2018-03-22T02:54:32.043Z,67.50
2018-03-22T02:56:59.579Z,67.10
2018-03-22T02:59:27.108Z,66.60
2018-03-22T03:01:54.768Z,66.80
2018-03-22T03:04:22.358Z,67.10
2018-03-22T03:06:50.675Z,67.40
2018-03-22T03:09:18.242Z,67.30
2018-03-22T03:11:45.816Z,67.70
2018-03-22T03:14:13.858Z,68.90
2018-03-22T03:16:42.158Z,68.40
2018-03-22T03:19:09.697Z,68.30
2018-03-22T03:21:38.096Z,68.60
2018-03-22T03:24:05.640Z,68.50
2018-03-22T03:26:33.954Z,70.90
2018-03-22T03:29:01.524Z,70.30
2018-03-22T03:31:29.059Z,71.10
2018-03-22T03:33:57.353Z,72.00
2018-03-22T03:36:25.668Z,71.60
2018-03-22T03:38:53.236Z,71.60
2018-03-22T03:41:20.844Z,71.40
2018-03-22T03:43:48.469Z,71.00
2018-03-22T03:46:16.014Z,70.20
2018-03-22T03:48:43.544Z,69.70
2018-03-22T03:51:11.113Z,69.20
2018-03-22T03:53:38.660Z,69.10
2018-03-22T03:56:06.195Z,69.00
2018-03-22T03:58:33.731Z,68.60
2018-03-22T04:01:01.271Z,68.70
2018-03-22T04:03:28.837Z,68.50
2018-03-22T04:05:56.381Z,68.60
2018-03-22T04:08:23.918Z,68.80
2018-03-22T04:10:51.466Z,68.90
2018-03-22T04:13:18.997Z,69.10
2018-03-22T04:15:46.638Z,69.00
2018-03-22T04:18:14.182Z,69.00
2018-03-22T04:20:41.733Z,68.70
2018-03-22T04:23:09.300Z,68.80
2018-03-22T04:25:36.862Z,68.50
2018-03-22T04:28:04.406Z,68.50
2018-03-22T04:30:32.729Z,68.10
2018-03-22T04:33:00.270Z,68.10
2018-03-22T04:35:27.844Z,68.20
2018-03-22T04:37:55.372Z,68.20
2018-03-22T04:40:22.938Z,68.10
2018-03-22T04:42:50.581Z,68.20
2018-03-22T04:45:18.120Z,68.10
2018-03-22T04:47:45.664Z,68.00
2018-03-22T04:50:13.203Z,67.90
2018-03-22T04:52:41.564Z,68.10
2018-03-22T04:55:09.145Z,68.10
2018-03-22T04:57:36.684Z,68.00
2018-03-22T05:00:04.215Z,68.00
2018-03-22T05:02:31.783Z,68.20
2018-03-22T05:04:59.403Z,68.20
2018-03-22T05:07:26.938Z,68.40
2018-03-22T05:09:54.496Z,68.40
2018-03-22T05:12:22.039Z,68.40
2018-03-22T05:14:49.547Z,68.30
2018-03-22T05:17:17.108Z,68.30
2018-03-22T05:19:44.651Z,68.30
2018-03-22T05:22:12.192Z,68.30
2018-03-22T05:24:39.856Z,68.30
2018-03-22T05:27:07.411Z,68.50
2018-03-22T05:29:36.102Z,68.40
2018-03-22T05:32:04.430Z,69.00
2018-03-22T05:34:31.977Z,69.00
2018-03-22T05:36:59.693Z,68.80
2018-03-22T05:39:27.262Z,68.70
2018-03-22T05:41:54.845Z,68.90
2018-03-22T05:44:22.369Z,69.20
2018-03-22T05:46:49.918Z,69.00
2018-03-22T05:49:17.493Z,68.90
2018-03-22T05:51:45.866Z,68.80
2018-03-22T05:54:13.782Z,68.80
2018-03-22T05:56:41.307Z,68.80
2018-03-22T05:59:08.853Z,68.80
2018-03-22T06:01:36.390Z,68.90
2018-03-22T06:04:03.984Z,68.60
2018-03-22T06:06:31.533Z,68.70
2018-03-22T06:08:59.848Z,68.50
2018-03-22T06:11:27.384Z,68.50
2018-03-22T06:13:55.706Z,68.40
2018-03-22T06:16:23.340Z,68.40
2018-03-22T06:18:51.272Z,68.10
2018-03-22T06:21:18.833Z,68.80
2018-03-22T06:23:46.369Z,68.00
2018-03-22T06:26:13.958Z,68.00
2018-03-22T06:28:41.555Z,68.00
2018-03-22T06:31:09.119Z,68.00
2018-03-22T06:33:36.662Z,68.10
2018-03-22T06:36:04.337Z,68.10
2018-03-22T06:38:31.896Z,68.20
2018-03-22T06:40:59.434Z,68.30
2018-03-22T06:43:27.101Z,68.10
2018-03-22T06:45:54.637Z,67.90
2018-03-22T06:48:22.940Z,67.50
2018-03-22T06:50:50.541Z,67.50
2018-03-22T06:53:18.094Z,67.50
2018-03-22T06:55:45.653Z,67.40
2018-03-22T06:58:13.206Z,67.30
2018-03-22T07:00:40.743Z,67.10
2018-03-22T07:03:08.289Z,66.80
2018-03-22T07:05:35.837Z,66.50
2018-03-22T07:08:03.390Z,66.40
2018-03-22T07:10:31.333Z,66.10
2018-03-22T07:12:58.957Z,66.10
2018-03-22T07:15:26.496Z,66.20
2018-03-22T07:17:54.034Z,66.10
2018-03-22T07:20:21.589Z,66.10
2018-03-22T07:22:49.108Z,65.70
2018-03-22T07:25:16.668Z,65.40
2018-03-22T07:27:44.201Z,64.90
2018-03-22T07:30:11.731Z,65.00
2018-03-22T07:32:40.069Z,64.70
2018-03-22T07:35:07.601Z,64.70
2018-03-22T07:37:35.132Z,65.00
2018-03-22T07:40:02.640Z,65.20
2018-03-22T07:42:30.185Z,65.20
2018-03-22T07:44:58.850Z,65.70
2018-03-22T07:47:26.384Z,65.60
2018-03-22T07:49:53.939Z,65.20
2018-03-22T07:52:21.505Z,65.30
2018-03-22T07:54:49.025Z,65.40
2018-03-22T07:57:17.342Z,65.60
2018-03-22T07:59:44.861Z,65.60
2018-03-22T08:02:12.475Z,65.60
2018-03-22T08:04:39.990Z,65.50
2018-03-22T08:07:07.569Z,65.50
2018-03-22T08:09:35.890Z,65.80
2018-03-22T08:12:03.500Z,65.80
2018-03-22T08:14:31.031Z,65.90
2018-03-22T08:16:58.590Z,65.80
2018-03-22T08:19:26.258Z,65.90
2018-03-22T08:21:53.820Z,65.90
2018-03-22T08:24:21.355Z,65.90
2018-03-22T08:26:49.654Z,66.00
2018-03-22T08:29:17.223Z,66.00
2018-03-22T08:31:44.748Z,66.10
2018-03-22T08:34:12.304Z,66.10
2018-03-22T08:36:39.865Z,66.10
2018-03-22T08:39:07.459Z,65.90
2018-03-22T08:41:35.774Z,66.20
2018-03-22T08:44:03.306Z,66.20
2018-03-22T08:46:31.637Z,67.20
2018-03-22T08:48:59.175Z,67.10
2018-03-22T08:51:26.769Z,67.80
2018-03-22T08:53:54.319Z,68.10
2018-03-22T08:56:21.900Z,68.40
2018-03-22T08:58:50.220Z,68.70
2018-03-22T09:01:17.784Z,68.70
2018-03-22T09:03:45.318Z,68.70
2018-03-22T09:06:12.849Z,68.60
2018-03-22T09:08:40.411Z,68.30
2018-03-22T09:11:07.992Z,67.50
2018-03-22T09:13:35.551Z,67.70
2018-03-22T09:16:03.259Z,67.50
2018-03-22T09:18:30.809Z,67.80
2018-03-22T09:20:58.412Z,69.30
2018-03-22T09:23:26.074Z,70.00
2018-03-22T09:25:53.617Z,70.30
2018-03-22T09:28:21.202Z,70.90
2018-03-22T09:30:48.821Z,71.40
2018-03-22T09:33:16.365Z,71.90
2018-03-22T09:35:44.705Z,72.90
2018-03-22T09:38:12.344Z,72.90
2018-03-22T09:40:39.923Z,73.30
2018-03-22T09:43:07.464Z,74.00
2018-03-22T09:45:34.999Z,76.90
2018-03-22T09:48:03.308Z,83.10
2018-03-22T09:50:30.849Z,82.70
2018-03-22T09:52:59.154Z,87.90
2018-03-22T09:55:26.722Z,87.40
2018-03-22T09:57:54.268Z,90.10
2018-03-22T10:00:22.587Z,91.90
2018-03-22T10:02:50.195Z,91.90
2018-03-22T10:05:17.658Z,92.80
2018-03-22T10:07:45.190Z,93.20
2018-03-22T10:10:12.731Z,93.90
2018-03-22T10:12:40.608Z,94.30
2018-03-22T10:15:08.137Z,94.80
2018-03-22T10:17:35.767Z,95.20
2018-03-22T10:20:04.122Z,95.60
2018-03-22T10:22:31.661Z,95.60
2018-03-22T10:25:00.147Z,96.80
2018-03-22T10:27:28.458Z,96.80
2018-03-22T10:29:55.996Z,96.70
2018-03-22T10:32:24.283Z,98.10
2018-03-22T10:34:52.606Z,97.50
2018-03-22T10:37:20.184Z,97.50
2018-03-22T10:39:47.709Z,98.20
2018-03-22T10:42:15.261Z,97.70
2018-03-22T10:44:43.562Z,97.80
2018-03-22T10:47:11.101Z,97.80
2018-03-22T10:49:38.647Z,97.70
2018-03-22T10:52:06.256Z,98.00
2018-03-22T10:54:34.563Z,97.40
2018-03-22T10:57:02.099Z,97.60
2018-03-22T10:59:30.401Z,97.20
2018-03-22T11:02:00.781Z,97.30
2018-03-22T11:04:28.326Z,96.90
2018-03-22T11:06:55.864Z,97.50
2018-03-22T11:09:23.398Z,97.10
2018-03-22T11:11:51.702Z,97.00
2018-03-22T11:14:19.263Z,97.00
2018-03-22T11:16:46.879Z,96.80
2018-03-22T11:19:14.424Z,97.50
2018-03-22T11:21:41.954Z,97.70
2018-03-22T11:24:10.269Z,97.80
2018-03-22T11:26:37.849Z,97.50
2018-03-22T11:29:05.584Z,97.40
2018-03-22T11:31:33.122Z,98.10
2018-03-22T11:34:01.435Z,97.40
2018-03-22T11:36:28.968Z,97.20
2018-03-22T11:38:57.310Z,97.80
2018-03-22T11:41:24.851Z,97.70
2018-03-22T11:43:52.388Z,97.60
2018-03-22T11:46:20.710Z,97.80
2018-03-22T11:48:48.234Z,97.70
2018-03-22T11:51:16.585Z,97.50
2018-03-22T11:53:44.181Z,97.50
2018-03-22T11:56:11.659Z,97.00
2018-03-22T11:58:39.212Z,96.90
2018-03-22T12:01:07.498Z,97.20
2018-03-22T12:03:35.857Z,97.20
2018-03-22T12:06:03.375Z,97.10
2018-03-22T12:08:30.915Z,97.70
2018-03-22T12:10:59.234Z,97.30
2018-03-22T12:13:26.770Z,97.40
2018-03-22T12:15:54.349Z,97.60
2018-03-22T12:18:21.898Z,97.70
2018-03-22T12:20:50.198Z,98.10
2018-03-22T12:23:17.828Z,98.00
2018-03-22T12:25:46.182Z,98.20
2018-03-22T12:28:14.548Z,98.20
2018-03-22T12:30:42.144Z,98.20
2018-03-22T12:33:09.686Z,97.90
2018-03-22T12:35:37.241Z,97.70
2018-03-22T12:38:04.778Z,97.90
2018-03-22T12:40:33.111Z,97.30
2018-03-22T12:43:00.643Z,97.30
2018-03-22T12:45:28.298Z,97.80
2018-03-22T12:47:55.860Z,97.40
2018-03-22T12:50:24.307Z,97.80
2018-03-22T12:52:51.892Z,97.80
2018-03-22T12:55:19.547Z,98.00
2018-03-22T12:57:47.078Z,97.80
2018-03-22T13:00:14.642Z,98.00
2018-03-22T13:02:42.191Z,98.00
2018-03-22T13:05:09.737Z,98.20
2018-03-22T13:07:38.054Z,98.20
2018-03-22T13:10:05.582Z,98.20
2018-03-22T13:12:33.917Z,98.60
2018-03-22T13:15:01.454Z,98.50
2018-03-22T13:17:29.035Z,99.00
2018-03-22T13:19:56.659Z,99.00
2018-03-22T13:22:27.915Z,99.20
2018-03-22T13:24:56.217Z,99.40
2018-03-22T13:27:24.207Z,99.40
2018-03-22T13:29:52.698Z,99.20
2018-03-22T13:32:20.399Z,99.20
2018-03-22T13:34:47.949Z,99.20
2018-03-22T13:37:15.490Z,99.20
2018-03-22T13:39:43.281Z,98.80
2018-03-22T13:42:10.897Z,99.50
2018-03-22T13:44:39.201Z,99.60
2018-03-22T13:47:06.774Z,99.60
2018-03-22T13:49:34.409Z,99.80
2018-03-22T13:52:02.715Z,99.90
2018-03-22T13:54:30.350Z,99.90
2018-03-22T13:56:58.781Z,99.90
2018-03-22T13:59:26.474Z,99.90
2018-03-22T14:01:54.006Z,99.90
2018-03-22T14:04:21.576Z,99.50
2018-03-22T14:06:49.185Z,99.90
2018-03-22T14:09:16.776Z,99.70
2018-03-22T14:11:44.391Z,99.90
2018-03-22T14:14:11.922Z,99.90
2018-03-22T14:16:39.512Z,99.90
2018-03-22T14:19:07.073Z,99.90
2018-03-22T14:21:34.623Z,99.90
2018-03-22T14:24:02.463Z,99.90
2018-03-22T14:26:30.023Z,99.90
2018-03-22T14:28:57.582Z,99.90
2018-03-22T14:31:25.139Z,99.90
2018-03-22T14:33:52.700Z,99.90
2018-03-22T14:36:20.247Z,99.90
2018-03-22T14:38:48.671Z,99.90
2018-03-22T14:41:16.235Z,99.90
2018-03-22T14:43:43.946Z,99.80
2018-03-22T14:46:11.538Z,99.80
2018-03-22T14:48:39.080Z,99.70
2018-03-22T14:51:06.615Z,99.50
2018-03-22T14:53:35.078Z,99.50
2018-03-22T14:56:02.659Z,99.50
2018-03-22T14:58:30.208Z,99.60
2018-03-22T15:00:57.753Z,99.90
2018-03-22T15:03:25.314Z,99.80
2018-03-22T15:05:52.925Z,99.80
2018-03-22T15:08:21.281Z,99.90
2018-03-22T15:10:48.821Z,99.90
2018-03-22T15:13:16.374Z,99.90
2018-03-22T15:15:43.909Z,99.90
2018-03-22T15:18:12.203Z,99.60
2018-03-22T15:20:39.777Z,99.60
2018-03-22T15:23:07.317Z,99.40
2018-03-22T15:25:34.961Z,99.50
2018-03-22T15:28:02.479Z,99.30
2018-03-22T15:30:30.031Z,99.30
2018-03-22T15:32:58.366Z,99.40
2018-03-22T15:35:25.911Z,99.40
2018-03-22T15:37:53.461Z,99.50
2018-03-22T15:40:20.998Z,99.80
2018-03-22T15:42:49.393Z,99.20
2018-03-22T15:45:17.891Z,99.10
2018-03-22T15:47:45.820Z,99.10
2018-03-22T15:50:13.330Z,99.10
2018-03-22T15:52:40.983Z,99.10
2018-03-22T15:55:09.304Z,99.10
2018-03-22T15:57:37.177Z,99.10
2018-03-22T16:00:04.744Z,99.10
2018-03-22T16:02:33.012Z,99.10
2018-03-22T16:05:00.780Z,99.00
2018-03-22T16:07:28.320Z,99.30
2018-03-22T16:09:56.640Z,99.30
2018-03-22T16:12:24.224Z,99.30
2018-03-22T16:14:51.784Z,99.30
2018-03-22T16:17:19.321Z,99.20
2018-03-22T16:19:46.851Z,99.10
2018-03-22T16:22:14.425Z,99.00
2018-03-22T16:24:42.729Z,98.80
2018-03-22T16:27:10.308Z,98.80
2018-03-22T16:29:37.861Z,98.70
2018-03-22T16:32:05.399Z,99.00
2018-03-22T16:34:33.928Z,99.10
2018-03-22T16:37:01.516Z,99.10
2018-03-22T16:39:29.057Z,99.20
2018-03-22T16:41:57.593Z,99.20
2018-03-22T16:44:25.153Z,99.40
2018-03-22T16:46:52.740Z,99.20
2018-03-22T16:49:21.072Z,99.20
2018-03-22T16:51:48.661Z,99.20
2018-03-22T16:54:16.194Z,99.30
2018-03-22T16:56:43.768Z,99.40
2018-03-22T16:59:11.369Z,99.00
2018-03-22T17:01:38.950Z,99.20
2018-03-22T17:04:06.509Z,99.20
2018-03-22T17:06:34.071Z,99.20
2018-03-22T17:09:01.705Z,99.10
2018-03-22T17:11:29.294Z,99.00
2018-03-22T17:13:56.844Z,99.00
2018-03-22T17:16:24.447Z,99.00
2018-03-22T17:18:52.768Z,99.30
2018-03-22T17:21:20.319Z,98.90
2018-03-22T17:23:47.902Z,99.00
2018-03-22T17:26:16.227Z,99.00
2018-03-22T17:28:44.544Z,99.00
2018-03-22T17:31:12.099Z,99.00
2018-03-22T17:33:40.418Z,99.00
2018-03-22T17:36:08.010Z,99.00
2018-03-22T17:38:35.583Z,99.00
2018-03-22T17:41:03.111Z,99.00
2018-03-22T17:43:30.675Z,99.00
2018-03-22T17:45:58.245Z,98.90
2018-03-22T17:48:25.833Z,99.00
2018-03-22T17:50:53.374Z,99.10
2018-03-22T17:53:20.945Z,99.00
2018-03-22T17:55:48.512Z,98.90
2018-03-22T17:58:16.068Z,98.90
2018-03-22T18:00:43.630Z,99.20
2018-03-22T18:03:11.195Z,99.20
2018-03-22T18:05:38.769Z,99.20
2018-03-22T18:08:06.321Z,99.30
2018-03-22T18:10:33.892Z,99.20
2018-03-22T18:13:01.470Z,99.20
2018-03-22T18:15:29.043Z,99.20
2018-03-22T18:17:56.607Z,99.30
2018-03-22T18:20:24.928Z,99.30
2018-03-22T18:22:52.498Z,99.20
2018-03-22T18:25:20.521Z,99.20
2018-03-22T18:27:48.114Z,99.30
2018-03-22T18:30:15.820Z,99.30
2018-03-22T18:32:43.477Z,99.40
2018-03-22T18:35:11.043Z,99.40
2018-03-22T18:37:38.651Z,99.40
2018-03-22T18:40:06.344Z,99.30
2018-03-22T18:42:33.933Z,99.40
2018-03-22T18:45:01.514Z,99.30
2018-03-22T18:47:29.867Z,99.30
2018-03-22T18:49:57.518Z,99.30
2018-03-22T18:52:25.246Z,99.30
2018-03-22T18:54:53.710Z,99.20
2018-03-22T18:57:21.303Z,99.20
2018-03-22T18:59:49.636Z,99.20
2018-03-22T19:02:17.662Z,99.20
2018-03-22T19:04:45.312Z,99.20
2018-03-22T19:07:13.345Z,99.10
2018-03-22T19:09:41.084Z,99.10
2018-03-22T19:12:08.679Z,99.20
2018-03-22T19:14:36.407Z,99.00
2018-03-22T19:17:04.808Z,99.10
2018-03-22T19:19:32.443Z,99.10
2018-03-22T19:22:00.163Z,99.00
2018-03-22T19:24:28.477Z,99.20
2018-03-22T19:26:56.194Z,99.10
2018-03-22T19:29:23.955Z,99.10
2018-03-22T19:31:52.332Z,99.20
2018-03-22T19:34:20.746Z,99.00
2018-03-22T19:36:48.383Z,99.00
2018-03-22T19:39:16.771Z,99.20
2018-03-22T19:41:45.196Z,99.20
2018-03-22T19:44:13.078Z,99.20
2018-03-22T19:46:41.772Z,99.20
2018-03-22T19:49:10.424Z,99.20
2018-03-22T19:51:39.247Z,99.10
2018-03-22T19:54:09.707Z,99.10
2018-03-22T19:56:37.515Z,98.80
2018-03-22T19:59:06.097Z,99.00
2018-03-22T20:01:34.758Z,99.00
2018-03-22T20:04:02.613Z,99.00
2018-03-22T20:06:30.289Z,99.10
2018-03-22T20:08:57.948Z,99.10
2018-03-22T20:11:25.661Z,99.10
2018-03-22T20:13:54.048Z,99.10
2018-03-22T20:16:22.570Z,99.20
2018-03-22T20:18:50.333Z,99.20
2018-03-22T20:21:18.062Z,99.10
2018-03-22T20:23:46.241Z,99.10
2018-03-22T20:26:14.689Z,99.10
2018-03-22T20:28:43.370Z,99.10
2018-03-22T20:31:11.119Z,99.10
2018-03-22T20:33:38.880Z,98.80
2018-03-22T20:36:07.259Z,99.10
2018-03-22T20:38:35.640Z,99.10
2018-03-22T20:41:04.128Z,99.10
2018-03-22T20:43:32.751Z,99.10
2018-03-22T20:46:00.919Z,99.10
2018-03-22T20:48:28.529Z,99.10
2018-03-22T20:50:56.121Z,99.10
2018-03-22T20:53:23.736Z,99.10
2018-03-22T20:55:51.335Z,99.10
2018-03-22T20:58:18.980Z,99.10
2018-03-22T21:00:46.598Z,99.10
2018-03-22T21:03:14.981Z,99.10
2018-03-22T21:05:44.156Z,99.10
2018-03-22T21:08:11.731Z,99.10
2018-03-22T21:10:39.326Z,99.10
2018-03-22T21:13:07.657Z,99.10
2018-03-22T21:15:35.258Z,99.10
2018-03-22T21:18:03.209Z,99.10
2018-03-22T21:20:30.805Z,99.10
2018-03-22T21:22:59.146Z,99.10
2018-03-22T21:25:26.734Z,99.10
2018-03-22T21:27:54.305Z,99.10
2018-03-22T21:30:22.188Z,99.10
2018-03-22T21:32:49.992Z,99.10
2018-03-22T21:35:17.633Z,99.10
2018-03-22T21:37:46.028Z,99.10
2018-03-22T21:40:14.365Z,99.10
2018-03-22T21:42:41.996Z,99.10
2018-03-22T21:45:09.540Z,99.10
2018-03-22T21:47:37.880Z,99.10
2018-03-22T21:50:05.446Z,99.10
2018-03-22T21:52:44.907Z,99.10
2018-03-22T21:55:12.454Z,99.10
2018-03-22T21:57:40.013Z,99.10
2018-03-22T22:00:07.589Z,99.10
2018-03-22T22:02:35.178Z,99.10
2018-03-22T22:05:03.512Z,99.10
2018-03-22T22:07:31.087Z,99.10
2018-03-22T22:09:58.648Z,99.10
2018-03-22T22:12:26.287Z,99.10
2018-03-22T22:14:54.626Z,99.10
2018-03-22T22:17:22.168Z,99.10
2018-03-22T22:19:49.714Z,99.10
2018-03-22T22:22:17.281Z,99.50
2018-03-22T22:24:44.856Z,99.10
2018-03-22T22:27:12.409Z,99.10
2018-03-22T22:29:40.002Z,99.10
2018-03-22T22:32:07.630Z,99.10
2018-03-22T22:34:35.177Z,99.10
2018-03-22T22:37:03.523Z,99.10
2018-03-22T22:39:31.083Z,99.10
2018-03-22T22:41:58.656Z,99.50
2018-03-22T22:44:26.218Z,99.10
2018-03-22T22:46:53.768Z,99.10
2018-03-22T22:49:21.528Z,99.20
2018-03-22T22:51:49.074Z,99.20
2018-03-22T22:54:16.648Z,99.00
2018-03-22T22:56:44.290Z,99.20
2018-03-22T22:59:11.835Z,99.20
2018-03-22T23:01:39.416Z,99.20
2018-03-22T23:04:07.732Z,99.20
2018-03-22T23:06:35.293Z,99.20
2018-03-22T23:09:02.826Z,99.20
2018-03-22T23:11:31.157Z,99.20
2018-03-22T23:13:58.746Z,99.20
2018-03-22T23:16:26.290Z,99.20
2018-03-22T23:18:53.838Z,99.20
2018-03-22T23:21:21.391Z,99.20
2018-03-22T23:23:49.684Z,99.20
2018-03-22T23:26:17.560Z,99.20
2018-03-22T23:28:45.111Z,99.20
2018-03-22T23:31:13.539Z,99.20
2018-03-22T23:33:41.098Z,99.20
2018-03-22T23:36:08.635Z,99.20
2018-03-22T23:38:36.220Z,99.20
2018-03-22T23:41:03.993Z,99.20
2018-03-22T23:43:31.583Z,99.20
2018-03-22T23:45:59.110Z,99.20
2018-03-22T23:48:26.923Z,99.20
2018-03-22T23:50:54.489Z,99.20
2018-03-22T23:53:22.035Z,99.20
2018-03-22T23:55:49.582Z,99.20
2018-03-22T23:58:17.131Z,99.20
